Terminal Aerodrome Forecast
Issued by NWS Atlanta, GA

Current Version | Previous Version | Text Only | Print | Product List | Glossary On
Versions: 1 2 3 4 5 6 7 8 9 10 11 12 13 14 15 16 17 18 19 20 21 22 23 24 25 26 27 28 29 30 31
000
FTUS42 KFFC 300527
TAFAHN
TAF
KAHN 300527Z 3006/3106 06003KT P6SM SCT050
      TEMPO 3010/3013 4SM BR
     FM301400 07005KT P6SM FEW030
     FM301700 07009G16KT P6SM SCT045
     FM310000 08005KT P6SM SCT120=

USA.gov is the U.S. government's official web portal to all federal, state and local government web resources and services.